Details From SBUG - Rubem Berta
To SBPA - Salgado Filho
Flight Number -
Tags Routegen Generated
Created
Modified
Stats Distance 305 nm / 564 km
Max Altitude 2,800 ft / 853 m
Waypoints 6
Social Downloads 1
Likes 0
Share VATSIM

Download

Looking for another format? Having issues loading an existing format? Contact us
Advertisement - Login to hide

Notes

Departing runway 8 SBUG. Arriving runway 9 SBPA.

Route

SBUG -29.77_-056.95 -29.86_-055.32 -29.93_-053.68 -29.99_-051.27 SBPA

ID Type Via Altitude Latitude Longitude Leg Dist Tot Dist Heading (true) Name
O SBUG APT - 2,800 ft / 853 m -29.78156˚ -57.02999˚ - 0 nm - -
-29.77_-056.95 LATLON - 2,800 ft / 853 m -29.77487˚ -56.94697˚ 4 nm 4 nm 85° / 85° -
-29.86_-055.32 LATLON - 2,800 ft / 853 m -29.86134˚ -55.31525˚ 85 nm 89 nm 94° / 93° -
-29.93_-053.68 LATLON - 2,800 ft / 853 m -29.92864˚ -53.68268˚ 85 nm 174 nm 93° / 92° -
-29.99_-051.27 LATLON - 1,370 ft / 418 m -29.99211˚ -51.26679˚ 125 nm 300 nm 92° / 91° -
O SBPA APT - 0 ft / 0 m -29.99414˚ -51.18327˚ 4 nm 304 nm 92° / 92° -

Altitude Profile

Advertisement - Login to hide

Weather


0- 5 10 15 20 25 30 35+ Temperature / ° C

Clouds and Precipitation
Forecast for 2017-12-14 00:00 UTC. Updated an hour ago

Ground ~20,000 ft ~40,000 ft Winds

SBUG

Details ICAO SBUG (URG)
Name Rubem Berta
Region Brazil
Timezone America/Sao_Paulo (UTC-2.0)
Stats Elevation 256 ft / 78 m (AMSL)
Location -29.781908° -57.037952°
Runways 2
Magnetic Variation 12.677° W

METAR

SBUG 132100Z 01011KT CAVOK 35/17 Q1007

Decode

TAF

TAF SBUG 131445Z 1318/1418 04009KT CAVOK TX36/1318Z TN25/1408Z BECMG 1320/1322 06007KT BECMG 1410/1412 24009KT BECMG 1415/1417 19008KT RMK PDV

Decode

Departure Runways

ID Width Length Bearing (true) Bearing (mag) Surface Threshold Offset Overrun Length
04 202 ft / 62 m 2,730 ft / 832 m 35.02° 47.70° Grass 0 ft / 0 m 0 ft / 0 m
09 98 ft / 30 m 4,914 ft / 1,498 m 84.72° 97.40° Asphalt 0 ft / 0 m 195 ft / 59 m
22 202 ft / 62 m 2,730 ft / 832 m 215.02° 227.70° Grass 0 ft / 0 m 0 ft / 0 m
27 98 ft / 30 m 4,914 ft / 1,498 m 264.72° 277.40° Asphalt 0 ft / 0 m 195 ft / 59 m

SBPA

Details ICAO SBPA (POA)
Name Salgado Filho
Region Brazil
Timezone America/Sao_Paulo (UTC-2.0)
Stats Elevation 11 ft / 3 m (AMSL)
Location -29.994428° -51.171426°
Runways 1
Magnetic Variation 16.878° W

METAR

SBPA 132200Z 11011KT CAVOK 28/19 Q1011

Decode

TAF

Not found

Destination Runways

ID Width Length Bearing (true) Bearing (mag) Surface Threshold Offset Overrun Length
11 138 ft / 42 m 7,487 ft / 2,282 m 91.60° 108.48° Asphalt 0 ft / 0 m 230 ft / 70 m
29 138 ft / 42 m 7,487 ft / 2,282 m 271.59° 288.47° Asphalt 0 ft / 0 m 197 ft / 60 m

Approach Navaids

Runway Type Ident Frequency Range Bearing (true) Bearing (mag) Slope Elevation
11 Localiser IPA 110.30 MHz 18 nm / 33 km 90.92° 107.80° - 11 ft / 3 m (AMSL)
11 Glidescope IPA 110.30 MHz 10 nm / 19 km 91.60° 108.47° 3.00° 11 ft / 3 m (AMSL)

Popular Alternatives